Pede Vento — CRLZ9 — position and weather

sailwx.info

Track history (hours):
 
Tides and Currents Weather Stations Pressure Air Temp Water Temp Dewpoint Dewpoint Depression Visibility Wind Speed Wind Dir Waves Ship Positions

Pede Vento

Last reported at 2016-May-15 15:25 UTC. Time now 2016-May-30 18:26 UTC.
Position N 38°41' W 009°18'.
Warning: this ship's position is 15 days out of date.

Length 12 m.

Type: Sailing vessel. MMSI: 263819560.

Date/timePositionNaut miles runAvg speedWind from/ knotsBaromVisibWave heightAir tempDewpointWater temp
2016-May-15 15:25N 38°41' W 009°18'5 6.3
2016-May-15 14:33N 38°42' W 009°25'2 1.6
2016-May-15 13:23N 38°40' W 009°23'2 2.0
2016-May-15 12:33N 38°39' W 009°23'2 1.5
2016-May-15 11:29N 38°40' W 009°24'1 0.7
2016-May-15 10:22N 38°39' W 009°24'2 2.9
2016-May-15 09:32N 38°42' W 009°25'0 0.0
2016-May-14 15:18N 38°41' W 009°25'2 2.2
2016-May-14 14:16N 38°39' W 009°24'0 0.5
2016-May-14 13:30N 38°40' W 009°24'2 2.1
2016-May-14 12:33N 38°42' W 009°24'0 0.4
2016-May-14 11:32N 38°41' W 009°25'2 2.0
2016-May-14 10:17N 38°41' W 009°22'  
Track history (hours):
 
Tides and Currents Weather Stations Pressure Air Temp Water Temp Dewpoint Dewpoint Depression Visibility Wind Speed Wind Dir Waves Ship Positions

Pede Vento

Last reported at 2016-May-15 15:25 UTC. Time now 2016-May-30 18:26 UTC.
Position N 38°41' W 009°18'.
Warning: this ship's position is 15 days out of date.

Length 12 m.

Type: Sailing vessel. MMSI: 263819560.

Date/timePositionNaut miles runAvg speedWind from/ knotsBaromVisibWave heightAir tempDewpointWater temp
2016-May-15 15:25N 38°41' W 009°18'5 6.3
2016-May-15 14:33N 38°42' W 009°25'2 1.6
2016-May-15 13:23N 38°40' W 009°23'2 2.0
2016-May-15 12:33N 38°39' W 009°23'2 1.5
2016-May-15 11:29N 38°40' W 009°24'1 0.7
2016-May-15 10:22N 38°39' W 009°24'2 2.9
2016-May-15 09:32N 38°42' W 009°25'0 0.0
2016-May-14 15:18N 38°41' W 009°25'2 2.2
2016-May-14 14:16N 38°39' W 009°24'0 0.5
2016-May-14 13:30N 38°40' W 009°24'2 2.1
2016-May-14 12:33N 38°42' W 009°24'0 0.4
2016-May-14 11:32N 38°41' W 009°25'2 2.0
2016-May-14 10:17N 38°41' W 009°22'  

Dump ship's entire track history